createdAt,value
2018-09-10T00:00:08.492Z,101464.45
2018-09-10T00:02:38.544Z,101461.84
2018-09-10T00:05:09.288Z,101461.13
2018-09-10T00:07:38.664Z,101457.78
2018-09-10T00:10:07.594Z,101462.91
2018-09-10T00:12:36.612Z,101456.84
2018-09-10T00:15:07.249Z,101465.95
2018-09-10T00:17:36.034Z,101458.53
2018-09-10T00:20:05.288Z,101458.16
2018-09-10T00:22:35.675Z,101456.85
2018-09-10T00:25:04.663Z,101455.17
2018-09-10T00:27:33.425Z,101460.31
2018-09-10T00:30:03.998Z,101450.73
2018-09-10T00:32:33.137Z,101454.24
2018-09-10T00:35:01.967Z,101455.55
2018-09-10T00:37:30.999Z,101453.44
2018-09-10T00:39:59.947Z,101455.61
2018-09-10T00:42:28.627Z,101456.92
2018-09-10T00:44:57.583Z,101462.17
2018-09-10T00:47:26.217Z,101463.53
2018-09-10T00:49:55.185Z,101458.33
2018-09-10T00:52:24.011Z,101459.64
2018-09-10T00:54:53.187Z,101465.33
2018-09-10T00:57:22.890Z,101459.74
2018-09-10T00:59:51.546Z,101462.84
2018-09-10T01:02:20.777Z,101458.09
2018-09-10T01:04:49.506Z,101459.93
2018-09-10T01:07:18.352Z,101454.25
2018-09-10T01:09:47.466Z,101450.78
2018-09-10T01:12:18.263Z,101452.52
2018-09-10T01:14:46.968Z,101458.14
2018-09-10T01:17:15.570Z,101459.49
2018-09-10T01:19:44.179Z,101453.50
2018-09-10T01:22:13.606Z,101447.06
2018-09-10T01:24:42.435Z,101456.97
2018-09-10T01:27:11.496Z,101457.83
2018-09-10T01:29:40.421Z,101460.47
2018-09-10T01:32:09.189Z,101460.42
2018-09-10T01:34:43.209Z,101457.28
2018-09-10T01:37:11.814Z,101459.33
2018-09-10T01:39:40.832Z,101454.93
2018-09-10T01:42:09.461Z,101454.06
2018-09-10T01:44:38.571Z,101458.34
2018-09-10T01:47:07.477Z,101456.59
2018-09-10T01:49:36.153Z,101457.41
2018-09-10T01:52:04.927Z,101456.41
2018-09-10T01:54:33.562Z,101445.97
2018-09-10T01:57:02.670Z,101444.16
2018-09-10T01:59:33.125Z,101444.16
2018-09-10T02:02:01.728Z,101441.09
2018-09-10T02:04:30.316Z,101441.52
2018-09-10T02:06:58.914Z,101435.88
2018-09-10T02:09:27.481Z,101432.84
2018-09-10T02:11:56.616Z,101440.20
2018-09-10T02:14:25.178Z,101436.31
2018-09-10T02:16:54.070Z,101433.21
2018-09-10T02:19:22.853Z,101438.28
2018-09-10T02:21:52.136Z,101437.84
2018-09-10T02:24:22.003Z,101438.21
2018-09-10T02:26:51.272Z,101441.19
2018-09-10T02:29:20.955Z,101434.23
2018-09-10T02:31:50.731Z,101438.95
2018-09-10T02:34:21.149Z,101436.22
2018-09-10T02:36:49.768Z,101435.78
2018-09-10T02:39:18.397Z,101432.75
2018-09-10T02:41:48.342Z,101435.72
2018-09-10T02:44:17.132Z,101419.70
2018-09-10T02:46:46.252Z,101412.78
2018-09-10T02:49:15.854Z,101412.84
2018-09-10T02:51:45.816Z,101411.97
2018-09-10T02:54:15.052Z,101411.95
2018-09-10T02:56:44.891Z,101413.22
2018-09-10T02:59:14.051Z,101409.77
2018-09-10T03:01:43.093Z,101411.95
2018-09-10T03:04:11.844Z,101413.26
2018-09-10T03:06:40.395Z,101415.88
2018-09-10T03:09:09.680Z,101411.97
2018-09-10T03:11:39.357Z,101412.36
2018-09-10T03:14:09.545Z,101408.19
2018-09-10T03:16:38.356Z,101408.77
2018-09-10T03:19:07.080Z,101403.70
2018-09-10T03:21:35.683Z,101404.20
2018-09-10T03:24:05.856Z,101402.25
2018-09-10T03:26:34.473Z,101401.83
2018-09-10T03:29:03.626Z,101395.83
2018-09-10T03:31:32.558Z,101401.02
2018-09-10T03:34:01.797Z,101397.24
2018-09-10T03:36:30.411Z,101396.44
2018-09-10T03:38:59.052Z,101396.39
2018-09-10T03:41:28.847Z,101397.75
2018-09-10T03:43:58.035Z,101399.86
2018-09-10T03:46:26.969Z,101400.36
2018-09-10T03:48:55.756Z,101393.05
2018-09-10T03:51:24.619Z,101398.17
2018-09-10T03:53:54.432Z,101400.41
2018-09-10T03:56:24.359Z,101396.45
2018-09-10T03:58:53.320Z,101393.30
2018-09-10T04:01:22.592Z,101387.67
2018-09-10T04:03:52.930Z,101383.34
2018-09-10T04:06:21.493Z,101385.45
2018-09-10T04:08:50.242Z,101383.34
2018-09-10T04:11:20.532Z,101387.22
2018-09-10T04:13:49.928Z,101378.56
2018-09-10T04:16:19.670Z,101382.41
2018-09-10T04:18:49.900Z,101382.41
2018-09-10T04:21:18.778Z,101381.98
2018-09-10T04:23:47.613Z,101386.72
2018-09-10T04:26:16.865Z,101387.09
2018-09-10T04:28:45.709Z,101389.27
2018-09-10T04:31:15.312Z,101389.34
2018-09-10T04:33:44.415Z,101389.45
2018-09-10T04:36:13.383Z,101390.19
2018-09-10T04:38:42.009Z,101393.16
2018-09-10T04:41:12.872Z,101396.94
2018-09-10T04:43:42.218Z,101396.05
2018-09-10T04:46:11.472Z,101401.18
2018-09-10T04:48:40.977Z,101406.80
2018-09-10T04:51:09.791Z,101406.25
2018-09-10T04:53:38.459Z,101404.06
2018-09-10T04:56:07.177Z,101403.93
2018-09-10T04:58:37.204Z,101404.30
2018-09-10T05:01:06.674Z,101409.81
2018-09-10T05:03:35.850Z,101414.42
2018-09-10T05:06:04.692Z,101418.56
2018-09-10T05:08:33.645Z,101423.61
2018-09-10T05:11:02.750Z,101428.74
2018-09-10T05:13:31.698Z,101428.22
2018-09-10T05:16:00.758Z,101431.11
2018-09-10T05:18:29.779Z,101427.11
2018-09-10T05:20:58.355Z,101426.19
2018-09-10T05:23:26.979Z,101423.44
2018-09-10T05:26:01.983Z,101421.27
2018-09-10T05:28:30.791Z,101418.59
2018-09-10T05:30:59.476Z,101416.36
2018-09-10T05:33:28.732Z,101414.16
2018-09-10T05:35:57.835Z,101418.86
2018-09-10T05:38:27.645Z,101423.61
2018-09-10T05:40:58.476Z,101426.65
2018-09-10T05:43:27.151Z,101427.51
2018-09-10T05:45:56.147Z,101421.91
2018-09-10T05:48:26.155Z,101422.70
2018-09-10T05:50:54.973Z,101418.33
2018-09-10T05:53:24.408Z,101417.89
2018-09-10T05:55:53.197Z,101421.89
2018-09-10T05:58:21.878Z,101422.31
2018-09-10T06:00:50.676Z,101420.52
2018-09-10T06:03:20.770Z,101412.56
2018-09-10T06:05:49.591Z,101411.22
2018-09-10T06:08:18.390Z,101412.61
2018-09-10T06:10:47.169Z,101411.31
2018-09-10T06:13:15.892Z,101419.63
2018-09-10T06:15:44.779Z,101418.67
2018-09-10T06:18:14.332Z,101416.86
2018-09-10T06:20:44.659Z,101416.37
2018-09-10T06:23:13.237Z,101409.84
2018-09-10T06:25:43.270Z,101418.80
2018-09-10T06:28:12.238Z,101416.09
2018-09-10T06:30:41.198Z,101407.23
2018-09-10T06:33:10.636Z,101407.99
2018-09-10T06:35:40.897Z,101408.33
2018-09-10T06:38:09.483Z,101399.11
2018-09-10T06:40:38.616Z,101403.74
2018-09-10T06:43:07.653Z,101402.75
2018-09-10T06:45:36.224Z,101405.22
2018-09-10T06:48:06.288Z,101408.83
2018-09-10T06:50:35.765Z,101404.31
2018-09-10T06:53:05.555Z,101401.05
2018-09-10T06:55:34.662Z,101397.91
2018-09-10T06:58:03.502Z,101400.34
2018-09-10T07:00:32.740Z,101397.65
2018-09-10T07:03:01.625Z,101393.63
2018-09-10T07:05:31.020Z,101402.63
2018-09-10T07:07:59.776Z,101399.05
2018-09-10T07:10:28.648Z,101413.39
2018-09-10T07:12:57.339Z,101421.14
2018-09-10T07:15:26.101Z,101416.44
2018-09-10T07:17:56.358Z,101427.30
2018-09-10T07:20:25.348Z,101425.64
2018-09-10T07:22:54.811Z,101427.86
2018-09-10T07:25:23.514Z,101440.17
2018-09-10T07:27:52.153Z,101440.17
2018-09-10T07:30:20.895Z,101435.52
2018-09-10T07:32:49.406Z,101434.30
2018-09-10T07:35:18.170Z,101435.27
2018-09-10T07:37:47.568Z,101434.41
2018-09-10T07:40:16.252Z,101429.17
2018-09-10T07:42:45.042Z,101426.92
2018-09-10T07:45:13.880Z,101425.95
2018-09-10T07:47:42.816Z,101423.37
2018-09-10T07:50:12.439Z,101423.17
2018-09-10T07:52:41.212Z,101427.84
2018-09-10T07:55:09.919Z,101426.47
2018-09-10T07:57:39.281Z,101437.31
2018-09-10T08:00:08.798Z,101445.63
2018-09-10T08:02:37.470Z,101453.13
2018-09-10T08:05:07.139Z,101455.22
2018-09-10T08:07:35.845Z,101456.97
2018-09-10T08:10:05.582Z,101456.95
2018-09-10T08:12:34.791Z,101452.51
2018-09-10T08:15:04.014Z,101441.94
2018-09-10T08:17:32.713Z,101449.11
2018-09-10T08:20:02.485Z,101453.77
2018-09-10T08:22:32.286Z,101449.14
2018-09-10T08:25:00.975Z,101448.73
2018-09-10T08:27:30.755Z,101444.77
2018-09-10T08:30:00.392Z,101452.05
2018-09-10T08:32:29.046Z,101459.46
2018-09-10T08:34:57.618Z,101474.03
2018-09-10T08:37:26.274Z,101467.80
2018-09-10T08:39:54.838Z,101462.78
2018-09-10T08:42:23.452Z,101464.47
2018-09-10T08:44:52.103Z,101469.52
2018-09-10T08:47:21.030Z,101460.28
2018-09-10T08:49:50.044Z,101462.69
2018-09-10T08:52:19.022Z,101474.82
2018-09-10T08:54:48.244Z,101472.87
2018-09-10T08:57:16.677Z,101468.70
2018-09-10T08:59:46.221Z,101472.11
2018-09-10T09:02:15.795Z,101479.50
2018-09-10T09:04:45.454Z,101475.23
2018-09-10T09:07:14.209Z,101478.33
2018-09-10T09:09:43.712Z,101477.13
2018-09-10T09:12:12.491Z,101471.11
2018-09-10T09:14:41.175Z,101473.25
2018-09-10T09:17:09.734Z,101476.72
2018-09-10T09:19:38.552Z,101474.00
2018-09-10T09:22:07.358Z,101474.31
2018-09-10T09:24:36.099Z,101486.34
2018-09-10T09:27:05.467Z,101483.97
2018-09-10T09:29:34.189Z,101496.55
2018-09-10T09:32:03.158Z,101489.50
2018-09-10T09:34:37.208Z,101487.60
2018-09-10T09:37:16.278Z,101484.29
2018-09-10T09:39:50.532Z,101488.81
2018-09-10T09:42:24.669Z,101490.53
2018-09-10T09:44:58.666Z,101482.92
2018-09-10T09:47:28.195Z,101485.20
2018-09-10T09:49:57.629Z,101471.76
2018-09-10T09:52:26.598Z,101470.30
2018-09-10T09:54:55.349Z,101475.19
2018-09-10T09:57:25.493Z,101471.27
2018-09-10T09:59:55.119Z,101477.40
2018-09-10T10:02:29.438Z,101477.95
2018-09-10T10:04:58.963Z,101489.31
2018-09-10T10:07:28.139Z,101497.56
2018-09-10T10:09:56.885Z,101505.11
2018-09-10T10:12:27.762Z,101509.55
2018-09-10T10:14:56.812Z,101501.59
2018-09-10T10:17:26.178Z,101482.73
2018-09-10T10:19:55.355Z,101466.42
2018-09-10T10:22:25.103Z,101467.53
2018-09-10T10:24:53.890Z,101478.67
2018-09-10T10:27:23.083Z,101482.67
2018-09-10T10:29:51.581Z,101476.05
2018-09-10T10:32:20.508Z,101472.09
2018-09-10T10:34:49.206Z,101476.69
2018-09-10T10:37:17.918Z,101487.25
2018-09-10T10:39:46.855Z,101477.30
2018-09-10T10:42:16.530Z,101482.50
2018-09-10T10:44:46.302Z,101469.50
2018-09-10T10:47:16.511Z,101478.55
2018-09-10T10:49:45.294Z,101473.96
2018-09-10T10:52:13.937Z,101471.16
2018-09-10T10:54:42.668Z,101469.77
2018-09-10T10:57:11.678Z,101474.89
2018-09-10T10:59:45.223Z,101473.69
2018-09-10T11:02:14.225Z,101474.34
2018-09-10T11:04:43.052Z,101465.26
2018-09-10T11:07:11.870Z,101468.72
2018-09-10T11:09:40.879Z,101478.34
2018-09-10T11:12:09.559Z,101477.63
2018-09-10T11:14:39.619Z,101472.99
2018-09-10T11:17:09.153Z,101479.55
2018-09-10T11:19:37.767Z,101480.87
2018-09-10T11:22:07.081Z,101485.09
2018-09-10T11:24:36.610Z,101490.56
2018-09-10T11:27:05.497Z,101489.84
2018-09-10T11:29:35.243Z,101484.08
2018-09-10T11:32:05.073Z,101473.32
2018-09-10T11:34:35.366Z,101469.17
2018-09-10T11:37:05.219Z,101468.14
2018-09-10T11:39:34.861Z,101467.81
2018-09-10T11:42:04.106Z,101469.84
2018-09-10T11:44:33.898Z,101461.34
2018-09-10T11:47:03.785Z,101453.79
2018-09-10T11:49:32.804Z,101450.41
2018-09-10T11:52:02.423Z,101447.97
2018-09-10T11:54:34.925Z,101441.36
2018-09-10T11:57:03.864Z,101443.41
2018-09-10T11:59:32.477Z,101451.59
2018-09-10T12:02:02.174Z,101451.09
2018-09-10T12:04:31.015Z,101462.88
2018-09-10T12:06:59.642Z,101462.39
2018-09-10T12:09:28.411Z,101461.63
2018-09-10T12:11:57.046Z,101460.45
2018-09-10T12:14:25.556Z,101467.66
2018-09-10T12:16:54.820Z,101464.58
2018-09-10T12:19:23.775Z,101467.52
2018-09-10T12:21:53.166Z,101474.70
2018-09-10T12:24:21.989Z,101480.95
2018-09-10T12:26:50.916Z,101477.11
2018-09-10T12:29:20.764Z,101480.09
2018-09-10T12:31:49.957Z,101487.02
2018-09-10T12:34:18.748Z,101488.19
2018-09-10T12:36:47.406Z,101487.82
2018-09-10T12:39:16.481Z,101502.70
2018-09-10T12:41:45.251Z,101503.83
2018-09-10T12:44:14.220Z,101495.83
2018-09-10T12:46:43.280Z,101508.81
2018-09-10T12:49:12.313Z,101502.66
2018-09-10T12:51:42.567Z,101508.63
2018-09-10T12:54:12.315Z,101504.28
2018-09-10T12:56:43.062Z,101509.56
2018-09-10T12:59:12.452Z,101504.67
2018-09-10T13:01:43.613Z,101512.30
2018-09-10T13:04:12.787Z,101505.73
2018-09-10T13:06:41.840Z,101497.15
2018-09-10T13:09:11.595Z,101502.77
2018-09-10T13:11:40.592Z,101508.23
2018-09-10T13:14:09.535Z,101516.24
2018-09-10T13:16:38.476Z,101533.69
2018-09-10T13:19:07.424Z,101532.30
2018-09-10T13:21:36.139Z,101526.59
2018-09-10T13:24:05.081Z,101523.20
2018-09-10T13:26:34.470Z,101526.59
2018-09-10T13:29:04.551Z,101533.20
2018-09-10T13:31:33.672Z,101537.09
2018-09-10T13:34:02.413Z,101543.64
2018-09-10T13:36:31.100Z,101540.16
2018-09-10T13:38:59.710Z,101536.97
2018-09-10T13:41:28.473Z,101530.11
2018-09-10T13:43:57.324Z,101520.55
2018-09-10T13:46:27.152Z,101508.73
2018-09-10T13:48:56.455Z,101507.28
2018-09-10T13:51:25.844Z,101504.52
2018-09-10T13:53:54.908Z,101504.12
2018-09-10T13:56:24.810Z,101501.75
2018-09-10T13:58:53.609Z,101504.02
2018-09-10T14:01:22.374Z,101509.70
2018-09-10T14:03:52.608Z,101519.19
2018-09-10T14:06:21.578Z,101508.69
2018-09-10T14:08:51.362Z,101501.75
2018-09-10T14:11:21.333Z,101502.00
2018-09-10T14:13:51.830Z,101501.28
2018-09-10T14:16:21.455Z,101500.52
2018-09-10T14:18:50.354Z,101497.89
2018-09-10T14:21:21.208Z,101490.08
2018-09-10T14:23:50.828Z,101494.06
2018-09-10T14:26:19.500Z,101497.00
2018-09-10T14:28:48.286Z,101505.41
2018-09-10T14:31:18.552Z,101509.80
2018-09-10T14:33:48.165Z,101505.09
2018-09-10T14:36:17.624Z,101509.83
2018-09-10T14:38:48.411Z,101510.82
2018-09-10T14:41:18.401Z,101513.06
2018-09-10T14:43:47.987Z,101515.09
2018-09-10T14:46:16.808Z,101521.56
2018-09-10T14:48:48.270Z,101538.60
2018-09-10T14:51:17.521Z,101525.72
2018-09-10T14:53:46.266Z,101536.63
2018-09-10T14:56:16.415Z,101542.41
2018-09-10T14:58:46.195Z,101546.09
2018-09-10T15:01:15.684Z,101554.52
2018-09-10T15:03:44.396Z,101555.55
2018-09-10T15:06:13.267Z,101556.36
2018-09-10T15:08:42.447Z,101557.55
2018-09-10T15:11:11.985Z,101556.07
2018-09-10T15:13:41.936Z,101549.93
2018-09-10T15:16:11.665Z,101546.58
2018-09-10T15:18:40.979Z,101548.22
2018-09-10T15:21:09.686Z,101551.41
2018-09-10T15:23:38.546Z,101549.88
2018-09-10T15:26:07.819Z,101554.27
2018-09-10T15:28:37.125Z,101546.45
2018-09-10T15:31:07.278Z,101540.35
2018-09-10T15:33:37.058Z,101536.38
2018-09-10T15:36:07.801Z,101546.56
2018-09-10T15:38:37.053Z,101548.37
2018-09-10T15:41:09.192Z,101544.92
2018-09-10T15:43:38.123Z,101553.44
2018-09-10T15:46:06.969Z,101563.98
2018-09-10T15:48:36.578Z,101562.59
2018-09-10T15:51:07.109Z,101549.63
2018-09-10T15:53:36.308Z,101536.09
2018-09-10T15:56:06.225Z,101523.89
2018-09-10T15:58:36.443Z,101529.61
2018-09-10T16:01:05.197Z,101535.59
2018-09-10T16:03:36.155Z,101537.73
2018-09-10T16:06:05.458Z,101535.97
2018-09-10T16:08:35.301Z,101531.66
2018-09-10T16:11:05.428Z,101538.20
2018-09-10T16:13:36.116Z,101541.20
2018-09-10T16:16:04.951Z,101531.55
2018-09-10T16:18:34.782Z,101543.61
2018-09-10T16:21:05.176Z,101548.45
2018-09-10T16:23:35.813Z,101553.35
2018-09-10T16:26:05.025Z,101551.22
2018-09-10T16:28:34.644Z,101552.94
2018-09-10T16:31:05.103Z,101564.39
2018-09-10T16:33:35.240Z,101551.50
2018-09-10T16:36:06.662Z,101550.88
2018-09-10T16:38:35.564Z,101551.55
2018-09-10T16:41:05.655Z,101549.38
2018-09-10T16:43:35.975Z,101542.73
2018-09-10T16:46:06.962Z,101533.68
2018-09-10T16:48:40.051Z,101542.73
2018-09-10T16:51:09.020Z,101547.62
2018-09-10T16:53:40.090Z,101556.05
2018-09-10T16:56:09.304Z,101551.95
2018-09-10T16:58:38.835Z,101546.70
2018-09-10T17:01:08.120Z,101538.07
2018-09-10T17:03:39.088Z,101544.66
2018-09-10T17:06:09.409Z,101554.38
2018-09-10T17:09:01.159Z,101549.66
2018-09-10T17:11:31.059Z,101541.06
2018-09-10T17:14:00.140Z,101550.83
2018-09-10T17:16:30.392Z,101553.14
2018-09-10T17:18:59.048Z,101546.86
2018-09-10T17:21:29.146Z,101537.37
2018-09-10T17:23:58.609Z,101529.52
2018-09-10T17:26:28.466Z,101529.67
2018-09-10T17:28:58.995Z,101540.95
2018-09-10T17:31:27.823Z,101534.30
2018-09-10T17:33:57.538Z,101540.95
2018-09-10T17:36:26.251Z,101535.56
2018-09-10T17:38:55.077Z,101531.45
2018-09-10T17:41:24.664Z,101528.12
2018-09-10T17:43:53.463Z,101540.51
2018-09-10T17:46:22.130Z,101557.95
2018-09-10T17:48:50.854Z,101556.30
2018-09-10T17:51:19.653Z,101561.70
2018-09-10T17:53:48.994Z,101570.06
2018-09-10T17:56:27.441Z,101580.52
2018-09-10T17:58:57.899Z,101581.48
2018-09-10T18:01:27.363Z,101581.06
2018-09-10T18:03:56.594Z,101573.30
2018-09-10T18:06:26.357Z,101579.41
2018-09-10T18:08:54.994Z,101585.05
2018-09-10T18:11:23.676Z,101575.25
2018-09-10T18:13:53.361Z,101593.03
2018-09-10T18:16:23.358Z,101603.93
2018-09-10T18:18:54.155Z,101600.14
2018-09-10T18:21:23.889Z,101586.25
2018-09-10T18:23:52.866Z,101588.90
2018-09-10T18:26:22.969Z,101593.27
2018-09-10T18:28:51.811Z,101598.94
2018-09-10T18:31:20.594Z,101591.16
2018-09-10T18:33:49.362Z,101595.15
2018-09-10T18:36:18.167Z,101583.45
2018-09-10T18:38:47.133Z,101585.55
2018-09-10T18:41:15.694Z,101598.17
2018-09-10T18:43:44.832Z,101599.06
2018-09-10T18:46:15.894Z,101611.75
2018-09-10T18:48:44.646Z,101617.08
2018-09-10T18:51:13.253Z,101613.63
2018-09-10T18:53:43.022Z,101609.30
2018-09-10T18:56:17.388Z,101609.36
2018-09-10T18:58:46.141Z,101599.39
2018-09-10T19:01:15.830Z,101590.00
2018-09-10T19:03:44.732Z,101603.95
2018-09-10T19:06:14.217Z,101614.14
2018-09-10T19:08:44.644Z,101607.71
2018-09-10T19:11:13.548Z,101609.84
2018-09-10T19:13:42.349Z,101615.55
2018-09-10T19:16:11.693Z,101607.23
2018-09-10T19:18:41.630Z,101590.80
2018-09-10T19:21:10.624Z,101593.13
2018-09-10T19:23:40.067Z,101591.40
2018-09-10T19:26:08.885Z,101592.36
2018-09-10T19:28:37.987Z,101580.22
2018-09-10T19:31:06.864Z,101585.95
2018-09-10T19:33:35.691Z,101589.45
2018-09-10T19:36:06.226Z,101610.41
2018-09-10T19:38:35.223Z,101620.59
2018-09-10T19:41:04.415Z,101627.20
2018-09-10T19:43:33.474Z,101622.48
2018-09-10T19:46:03.383Z,101608.25
2018-09-10T19:48:32.424Z,101603.03
2018-09-10T19:51:03.116Z,101602.67
2018-09-10T19:53:32.203Z,101597.00
2018-09-10T19:56:02.241Z,101603.11
2018-09-10T19:58:31.454Z,101614.42
2018-09-10T20:01:00.292Z,101603.59
2018-09-10T20:03:29.174Z,101599.67
2018-09-10T20:06:00.144Z,101588.82
2018-09-10T20:08:28.982Z,101601.45
2018-09-10T20:10:57.922Z,101587.72
2018-09-10T20:13:26.827Z,101586.12
2018-09-10T20:15:56.396Z,101596.29
2018-09-10T20:18:25.174Z,101602.81
2018-09-10T20:20:55.001Z,101603.34
2018-09-10T20:23:24.237Z,101608.32
2018-09-10T20:25:52.922Z,101611.73
2018-09-10T20:28:21.660Z,101599.19
2018-09-10T20:30:50.537Z,101604.05
2018-09-10T20:33:19.309Z,101610.05
2018-09-10T20:35:48.455Z,101602.13
2018-09-10T20:38:17.197Z,101597.30
2018-09-10T20:40:45.986Z,101609.45
2018-09-10T20:43:14.727Z,101608.67
2018-09-10T20:45:43.382Z,101611.79
2018-09-10T20:48:12.202Z,101607.96
2018-09-10T20:50:41.484Z,101604.08
2018-09-10T20:53:10.496Z,101597.14
2018-09-10T20:55:39.171Z,101578.43
2018-09-10T20:58:08.658Z,101567.97
2018-09-10T21:00:38.945Z,101566.34
2018-09-10T21:03:08.549Z,101561.65
2018-09-10T21:05:37.622Z,101556.46
2018-09-10T21:08:06.401Z,101560.88
2018-09-10T21:10:35.117Z,101563.59
2018-09-10T21:13:04.035Z,101574.83
2018-09-10T21:15:32.716Z,101570.98
2018-09-10T21:18:01.801Z,101573.50
2018-09-10T21:20:30.389Z,101560.48
2018-09-10T21:22:58.939Z,101556.30
2018-09-10T21:25:28.328Z,101567.68
2018-09-10T21:27:57.933Z,101573.50
2018-09-10T21:30:26.834Z,101576.50
2018-09-10T21:32:56.131Z,101567.34
2018-09-10T21:35:25.066Z,101557.78
2018-09-10T21:37:53.950Z,101565.16
2018-09-10T21:40:22.720Z,101566.46
2018-09-10T21:42:53.094Z,101568.30
2018-09-10T21:45:22.027Z,101567.52
2018-09-10T21:47:51.765Z,101581.80
2018-09-10T21:50:20.553Z,101567.45
2018-09-10T21:52:49.339Z,101569.26
2018-09-10T21:55:18.114Z,101571.98
2018-09-10T21:57:47.737Z,101567.31
2018-09-10T22:00:16.476Z,101560.35
2018-09-10T22:02:45.164Z,101555.11
2018-09-10T22:05:13.711Z,101551.28
2018-09-10T22:07:42.373Z,101556.16
2018-09-10T22:10:11.079Z,101549.31
2018-09-10T22:12:39.655Z,101555.87
2018-09-10T22:15:08.340Z,101549.88
2018-09-10T22:17:37.001Z,101547.80
2018-09-10T22:20:06.010Z,101552.53
2018-09-10T22:22:35.347Z,101558.23
2018-09-10T22:25:04.092Z,101550.43
2018-09-10T22:27:32.775Z,101549.98
2018-09-10T22:30:02.397Z,101548.60
2018-09-10T22:32:31.072Z,101545.14
2018-09-10T22:34:59.960Z,101545.32
2018-09-10T22:37:29.699Z,101554.05
2018-09-10T22:39:58.453Z,101550.61
2018-09-10T22:42:27.466Z,101550.17
2018-09-10T22:44:56.109Z,101555.41
2018-09-10T22:47:25.807Z,101554.50
2018-09-10T22:49:54.569Z,101550.61
2018-09-10T22:52:23.323Z,101550.17
2018-09-10T22:54:52.919Z,101541.08
2018-09-10T22:57:22.566Z,101544.59
2018-09-10T22:59:51.756Z,101542.44
2018-09-10T23:02:20.544Z,101541.16
2018-09-10T23:04:49.344Z,101546.36
2018-09-10T23:07:18.188Z,101538.61
2018-09-10T23:09:47.186Z,101527.94
2018-09-10T23:12:16.416Z,101519.66
2018-09-10T23:14:45.584Z,101524.79
2018-09-10T23:17:14.210Z,101526.45
2018-09-10T23:19:42.745Z,101530.86
2018-09-10T23:22:11.294Z,101545.14
2018-09-10T23:24:40.006Z,101544.28
2018-09-10T23:27:08.635Z,101540.59
2018-09-10T23:29:37.308Z,101543.98
2018-09-10T23:32:06.048Z,101550.00
2018-09-10T23:34:34.527Z,101547.73
2018-09-10T23:37:03.236Z,101548.59
2018-09-10T23:39:32.299Z,101536.42
2018-09-10T23:42:01.751Z,101532.03
2018-09-10T23:44:30.534Z,101524.21
2018-09-10T23:46:59.254Z,101528.19
2018-09-10T23:49:28.269Z,101536.95
2018-09-10T23:51:57.242Z,101539.16
2018-09-10T23:54:26.033Z,101544.44
2018-09-10T23:56:55.707Z,101547.61
2018-09-10T23:59:24.689Z,101548.58
